Time;durP1;ratioP1;P1;durP2;ratioP2;P2;SDS_P1;SDS_P2;PMS_P1;PMS_P2;Temp;Humidity;BMP_temperature;BMP_pressure;BME280_temperature;BME280_humidity;BME280_pressure;Samples;Min_cycle;Max_cycle;Signal;HPM_P1;HPM_P2
2023/05/30 00:00:05;;;;;;;6.00;2.50;;;;;;;17.23;100.00;100630.61;106258;1252;72678;-86
2023/05/30 00:02:54;;;;;;;3.20;2.30;;;;;;;17.13;100.00;100632.00;106545;1259;71056;-85
2023/05/30 00:05:43;;;;;;;5.70;2.50;;;;;;;17.04;100.00;100634.63;106178;1254;73824;-84
2023/05/30 00:08:32;;;;;;;4.10;2.40;;;;;;;17.13;100.00;100631.94;106408;1254;61655;-89
2023/05/30 00:11:23;;;;;;;3.40;2.20;;;;;;;17.13;100.00;100629.45;106555;1254;60461;-84
2023/05/30 00:14:12;;;;;;;5.20;2.50;;;;;;;17.09;100.00;100638.06;106384;1257;72883;-90
2023/05/30 00:17:00;;;;;;;7.50;2.40;;;;;;;17.04;100.00;100632.30;106329;1255;68578;-84
2023/05/30 00:19:49;;;;;;;3.70;2.00;;;;;;;16.96;100.00;100633.46;106321;1254;401581;-89
2023/05/30 00:22:40;;;;;;;4.40;2.40;;;;;;;16.99;100.00;100631.29;106297;1254;60855;-89
2023/05/30 00:25:32;;;;;;;6.10;2.00;;;;;;;16.69;100.00;100629.85;106633;1254;60473;-89
2023/05/30 00:28:22;;;;;;;3.90;2.00;;;;;;;16.61;100.00;100628.35;106249;1253;73726;-89
2023/05/30 00:31:13;;;;;;;4.90;2.10;;;;;;;16.68;100.00;100625.15;106364;1254;68670;-89
2023/05/30 00:34:01;;;;;;;4.50;2.50;;;;;;;16.66;100.00;100625.77;106507;1258;72347;-89
2023/05/30 00:36:50;;;;;;;4.10;2.10;;;;;;;16.65;100.00;100621.88;106446;1254;61668;-89
2023/05/30 00:39:39;;;;;;;5.00;2.30;;;;;;;16.64;100.00;100619.82;106488;1254;60287;-88
2023/05/30 00:42:28;;;;;;;3.90;2.10;;;;;;;16.66;100.00;100615.22;106437;1254;74936;-89
2023/05/30 00:45:17;;;;;;;4.90;2.10;;;;;;;16.56;100.00;100615.57;106538;1254;69953;-89
2023/05/30 00:48:05;;;;;;;2.30;1.80;;;;;;;16.56;100.00;100617.60;106701;1253;70809;-90
2023/05/30 00:50:54;;;;;;;3.60;2.20;;;;;;;16.49;100.00;100615.78;106469;1260;61415;-88
2023/05/30 00:53:43;;;;;;;2.90;2.10;;;;;;;16.47;100.00;100612.98;106264;1254;60359;-88
2023/05/30 00:56:32;;;;;;;2.20;1.80;;;;;;;16.37;100.00;100613.50;106732;1253;73914;-85
2023/05/30 00:59:21;;;;;;;4.50;2.20;;;;;;;16.33;100.00;100615.03;106569;1258;70896;-84
2023/05/30 01:02:10;;;;;;;4.30;2.80;;;;;;;16.25;100.00;100609.88;106425;1254;75458;-89
2023/05/30 01:05:00;;;;;;;4.70;2.40;;;;;;;16.15;100.00;100611.56;106560;1259;62013;-89
2023/05/30 01:07:49;;;;;;;2.90;2.20;;;;;;;16.05;100.00;100608.73;106644;1254;61799;-89
2023/05/30 01:10:38;;;;;;;4.00;2.30;;;;;;;16.02;100.00;100608.47;106752;1253;75439;-84
2023/05/30 01:13:33;;;;;;;3.00;2.10;;;;;;;15.98;100.00;100600.69;106328;1254;71344;-85
2023/05/30 01:16:24;;;;;;;3.50;2.10;;;;;;;15.89;100.00;100601.76;106431;1253;74150;-84
2023/05/30 01:19:23;;;;;;;4.40;2.60;;;;;;;15.89;100.00;100606.94;106121;1254;62797;-89
2023/05/30 01:22:38;;;;;;;2.30;1.70;;;;;;;15.92;100.00;100608.04;106216;1253;61629;-89
2023/05/30 01:26:06;;;;;;;3.80;2.20;;;;;;;15.86;100.00;100608.17;106387;1256;76284;-85
2023/05/30 01:28:55;;;;;;;7.80;2.20;;;;;;;15.86;100.00;100608.83;106157;1258;70027;-84
2023/05/30 01:31:44;;;;;;;4.70;2.50;;;;;;;15.80;100.00;100609.08;106054;1260;71141;-85
2023/05/30 01:34:33;;;;;;;2.60;2.20;;;;;;;15.76;100.00;100613.15;106270;1253;60913;-85
2023/05/30 01:37:21;;;;;;;4.60;2.40;;;;;;;15.74;100.00;100611.88;106309;1253;60292;-85
2023/05/30 01:40:10;;;;;;;4.70;2.40;;;;;;;15.71;100.00;100612.32;106341;1257;77687;-85
2023/05/30 01:43:18;;;;;;;6.30;2.60;;;;;;;15.63;100.00;100609.42;106466;1254;68324;-85
2023/05/30 01:46:32;;;;;;;3.90;2.20;;;;;;;15.53;100.00;100606.96;106384;1256;73241;-85
2023/05/30 01:49:48;;;;;;;3.50;2.20;;;;;;;15.49;100.00;100603.55;106517;1253;61767;-84
2023/05/30 01:52:40;;;;;;;3.40;2.50;;;;;;;15.48;100.00;100595.71;106548;1253;60515;-85
2023/05/30 01:55:29;;;;;;;3.50;2.40;;;;;;;15.47;100.00;100597.38;106519;1253;74576;-85
2023/05/30 01:58:18;;;;;;;3.80;2.30;;;;;;;15.47;100.00;100597.16;106530;1254;69846;-85
2023/05/30 02:01:07;;;;;;;5.10;2.40;;;;;;;15.48;100.00;100596.65;106452;1251;73803;-90
2023/05/30 02:03:56;;;;;;;3.60;2.00;;;;;;;15.45;100.00;100594.13;106409;1259;60479;-86
2023/05/30 02:06:45;;;;;;;3.10;2.40;;;;;;;15.39;100.00;100598.59;106244;1253;60942;-85
2023/05/30 02:09:33;;;;;;;3.80;2.50;;;;;;;15.37;100.00;100598.33;106350;1253;71640;-90
2023/05/30 02:12:22;;;;;;;5.50;2.50;;;;;;;15.33;100.00;100603.59;106305;1258;68544;-89
2023/05/30 02:15:11;;;;;;;3.30;2.60;;;;;;;15.33;100.00;100602.74;106375;1255;77055;-89
2023/05/30 02:17:59;;;;;;;4.30;2.50;;;;;;;15.40;100.00;100602.00;106620;1254;60675;-89
2023/05/30 02:20:48;;;;;;;6.20;2.80;;;;;;;15.37;100.00;100601.23;106343;1253;60656;-90
2023/05/30 02:23:37;;;;;;;5.50;2.50;;;;;;;15.42;100.00;100603.48;106487;1254;76275;-90
2023/05/30 02:26:26;;;;;;;4.00;2.70;;;;;;;15.45;100.00;100603.39;106470;1257;71228;-90
2023/05/30 02:29:15;;;;;;;5.20;2.50;;;;;;;15.48;100.00;100605.52;106434;1253;74059;-90
2023/05/30 02:32:07;;;;;;;6.00;2.90;;;;;;;15.54;100.00;100602.63;106617;1253;62343;-90
2023/05/30 02:34:56;;;;;;;6.00;3.30;;;;;;;15.55;100.00;100603.05;106561;1256;62464;-90
2023/05/30 02:37:45;;;;;;;3.10;2.40;;;;;;;15.61;100.00;100602.21;106725;1256;74680;-89
2023/05/30 02:40:33;;;;;;;4.70;2.70;;;;;;;15.72;100.00;100603.81;106550;1253;69747;-86
2023/05/30 02:43:22;;;;;;;4.50;2.70;;;;;;;15.80;100.00;100602.04;106383;1253;72384;-85
2023/05/30 02:46:11;;;;;;;4.70;2.80;;;;;;;15.88;100.00;100605.92;106163;1256;64011;-86
2023/05/30 02:49:01;;;;;;;5.40;2.50;;;;;;;15.99;100.00;100605.55;106471;1253;61891;-90
2023/05/30 02:51:49;;;;;;;5.00;2.70;;;;;;;16.06;100.00;100609.64;106182;1254;74800;-89
2023/05/30 02:54:43;;;;;;;3.30;2.50;;;;;;;16.21;100.00;100606.96;106120;1253;71260;-88
2023/05/30 02:57:52;;;;;;;4.10;2.50;;;;;;;16.40;100.00;100606.38;106131;1253;72617;-89
2023/05/30 03:00:45;;;;;;;5.90;3.00;;;;;;;16.52;100.00;100604.08;106490;1254;61240;-85
2023/05/30 03:03:41;;;;;;;8.20;3.10;;;;;;;16.78;100.00;100605.88;106196;1253;61384;-85
2023/05/30 03:06:42;;;;;;;3.60;2.50;;;;;;;16.99;100.00;100602.79;106321;1254;75026;-85
2023/05/30 03:09:37;;;;;;;3.30;2.50;;;;;;;17.24;100.00;100605.69;106252;1254;68910;-88
2023/05/30 03:12:26;;;;;;;4.30;2.80;;;;;;;17.38;100.00;100606.38;106315;1254;71432;-91
2023/05/30 03:15:16;;;;;;;9.30;4.10;;;;;;;17.56;100.00;100605.66;106271;1256;61232;-88
2023/05/30 03:18:05;;;;;;;14.00;5.90;;;;;;;17.69;100.00;100601.07;106392;1253;62004;-90
2023/05/30 03:20:54;;;;;;;11.50;5.90;;;;;;;17.91;100.00;100601.40;106459;1253;77146;-89
2023/05/30 03:23:43;;;;;;;12.50;6.00;;;;;;;18.08;100.00;100598.99;105953;1254;68701;-88
2023/05/30 04:46:47;;;;;;;2.10;1.50;;;;;;;23.25;68.36;100605.42;106193;1254;72524;-86
2023/05/30 04:49:41;;;;;;;3.10;1.40;;;;;;;23.39;66.93;100607.11;106147;1253;61736;-90
2023/05/30 04:52:30;;;;;;;3.40;1.80;;;;;;;23.56;65.26;100603.27;106296;1258;61357;-89
2023/05/30 04:55:19;;;;;;;3.80;1.80;;;;;;;23.72;64.27;100605.73;106370;1253;75455;-88
2023/05/30 04:58:07;;;;;;;2.20;1.60;;;;;;;23.83;62.30;100605.66;106353;1253;69659;-90
2023/05/30 05:00:58;;;;;;;4.80;1.80;;;;;;;23.98;60.66;100610.14;106383;1254;71865;-88
2023/05/30 05:03:47;;;;;;;2.20;1.60;;;;;;;24.09;58.25;100616.48;106274;1254;61281;-89
2023/05/30 05:06:37;;;;;;;4.50;1.70;;;;;;;24.25;56.06;100617.77;106240;1253;61346;-85
2023/05/30 05:09:26;;;;;;;3.50;1.70;;;;;;;24.40;54.83;100616.64;106498;1254;74617;-89
2023/05/30 05:12:14;;;;;;;2.10;1.60;;;;;;;24.51;54.74;100615.90;106434;1254;70288;-85
2023/05/30 05:15:03;;;;;;;5.60;1.70;;;;;;;24.77;53.75;100616.31;106241;1254;74947;-91
2023/05/30 05:17:52;;;;;;;2.80;1.90;;;;;;;24.86;52.69;100616.14;106476;1253;61260;-86
2023/05/30 05:20:40;;;;;;;4.60;2.20;;;;;;;24.91;51.88;100612.71;106396;1254;61294;-85
2023/05/30 05:23:29;;;;;;;3.00;1.60;;;;;;;24.96;50.73;100616.55;106233;1254;75104;-85
2023/05/30 05:26:18;;;;;;;4.30;2.00;;;;;;;25.06;51.23;100618.16;106364;1254;69516;-85
2023/05/30 05:29:08;;;;;;;4.20;1.60;;;;;;;25.18;51.80;100616.86;106701;1254;73436;-89
2023/05/30 05:31:57;;;;;;;2.20;1.50;;;;;;;25.36;50.02;100616.58;106262;1254;62040;-86
2023/05/30 05:34:46;;;;;;;2.70;1.80;;;;;;;25.41;49.86;100614.27;106474;1253;61367;-85
2023/05/30 05:37:35;;;;;;;5.10;1.80;;;;;;;25.59;47.85;100617.80;106461;1254;65683;-86
2023/05/30 05:40:24;;;;;;;7.10;2.40;;;;;;;25.64;47.36;100616.92;106472;1254;62011;-85
2023/05/30 05:43:13;;;;;;;4.90;2.30;;;;;;;25.81;48.25;100611.80;106278;1255;64809;-85
2023/05/30 05:46:02;;;;;;;5.90;2.10;;;;;;;26.02;47.77;100610.34;106298;1254;61228;-85
2023/05/30 05:48:51;;;;;;;4.50;2.00;;;;;;;26.25;46.60;100613.81;106373;1253;61195;-85
2023/05/30 05:51:40;;;;;;;5.10;1.80;;;;;;;26.34;45.50;100619.20;106249;1253;64482;-85
2023/05/30 05:54:28;;;;;;;4.20;2.10;;;;;;;26.44;44.75;100614.83;106502;1253;61954;-84
2023/05/30 05:57:17;;;;;;;3.80;1.90;;;;;;;26.46;44.44;100614.84;106378;1254;64809;-85
2023/05/30 06:00:07;;;;;;;7.00;2.10;;;;;;;26.59;44.59;100614.94;106285;1254;61195;-85
2023/05/30 06:03:02;;;;;;;2.50;1.70;;;;;;;26.81;44.39;100609.70;106465;1253;61348;-84
2023/05/30 06:05:55;;;;;;;3.10;1.70;;;;;;;26.97;43.90;100609.13;106127;1253;69614;-85
2023/05/30 06:08:45;;;;;;;3.80;1.70;;;;;;;26.99;44.10;100608.33;106289;1253;61328;-84
2023/05/30 06:11:34;;;;;;;2.20;1.60;;;;;;;27.15;43.31;100600.78;106282;1256;62443;-85
2023/05/30 06:14:22;;;;;;;3.10;2.00;;;;;;;27.34;43.92;100601.19;106281;1256;61249;-85
2023/05/30 06:17:11;;;;;;;2.10;1.80;;;;;;;27.56;43.75;100603.24;106151;1260;59327;-85
2023/05/30 06:19:59;;;;;;;3.40;1.80;;;;;;;27.94;42.80;100602.17;106166;1258;68335;-85
2023/05/30 06:22:48;;;;;;;4.20;3.00;;;;;;;28.25;42.04;100602.07;106200;1260;68978;-90
2023/05/30 06:25:37;;;;;;;3.20;1.70;;;;;;;28.51;40.76;100606.16;106138;1255;74998;-90
2023/05/30 06:28:25;;;;;;;5.00;2.50;;;;;;;28.62;40.53;100605.63;106042;1256;61354;-90
2023/05/30 06:31:14;;;;;;;5.90;2.10;;;;;;;28.71;39.60;100601.79;106247;1253;61398;-90
2023/05/30 06:34:03;;;;;;;4.30;2.00;;;;;;;28.93;39.09;100601.80;106154;1253;68696;-90
2023/05/30 06:36:52;;;;;;;2.60;2.10;;;;;;;29.07;38.97;100598.69;106228;1253;61832;-90
2023/05/30 06:39:41;;;;;;;4.30;2.00;;;;;;;29.07;38.88;100596.52;106100;1253;63729;-90
2023/05/30 06:42:32;;;;;;;4.10;1.70;;;;;;;29.16;38.46;100593.71;106123;1257;61144;-91
2023/05/30 06:45:20;;;;;;;4.20;1.60;;;;;;;29.21;37.35;100594.02;106092;1253;61368;-91
2023/05/30 06:48:09;;;;;;;4.80;1.70;;;;;;;29.13;37.64;100590.75;106273;1254;68061;-89
2023/05/30 06:50:57;;;;;;;3.60;1.90;;;;;;;29.18;37.47;100586.40;106243;1253;61219;-89
2023/05/30 06:53:47;;;;;;;3.40;2.10;;;;;;;29.31;36.32;100583.31;106112;1253;63784;-89
2023/05/30 06:56:36;;;;;;;2.10;1.70;;;;;;;29.42;33.92;100579.84;106183;1255;62906;-90
2023/05/30 06:59:24;;;;;;;3.80;1.50;;;;;;;29.35;34.41;100582.34;106201;1258;61324;-90
2023/05/30 07:02:13;;;;;;;4.10;1.80;;;;;;;29.30;34.02;100579.39;106190;1253;68319;-90
2023/05/30 07:05:02;;;;;;;2.60;1.70;;;;;;;29.42;33.91;100579.13;106154;1253;61310;-89
2023/05/30 07:07:51;;;;;;;3.20;1.70;;;;;;;29.61;32.10;100575.46;106368;1253;71296;-90
2023/05/30 07:10:40;;;;;;;8.10;1.90;;;;;;;29.76;32.85;100575.91;106138;1255;61305;-90
2023/05/30 07:13:28;;;;;;;2.50;1.60;;;;;;;30.08;32.64;100578.34;106065;1253;61273;-90
2023/05/30 07:16:17;;;;;;;2.10;1.50;;;;;;;30.34;30.99;100574.85;106170;1253;64450;-90
2023/05/30 07:19:06;;;;;;;3.90;1.30;;;;;;;30.74;30.73;100575.62;106304;1253;61327;-90
2023/05/30 07:22:00;;;;;;;2.90;1.50;;;;;;;31.03;31.12;100575.49;106364;1260;62579;-91
2023/05/30 07:24:48;;;;;;;2.20;1.50;;;;;;;31.09;30.41;100574.06;106142;1253;61219;-90
2023/05/30 07:27:37;;;;;;;3.70;1.80;;;;;;;31.24;29.79;100569.00;106148;1253;59229;-90
2023/05/30 07:30:26;;;;;;;4.10;1.60;;;;;;;31.37;29.12;100570.09;106318;1253;76729;-89
2023/05/30 07:33:15;;;;;;;3.40;1.90;;;;;;;31.43;29.30;100571.42;106110;1253;63536;-90
2023/05/30 07:36:04;;;;;;;5.50;1.60;;;;;;;31.51;29.43;100571.58;106187;1254;65891;-91
2023/05/30 07:38:52;;;;;;;4.00;2.10;;;;;;;31.61;29.41;100572.98;106251;1256;61443;-89
2023/05/30 07:41:41;;;;;;;3.00;1.60;;;;;;;31.63;28.96;100567.80;106136;1253;61333;-90
2023/05/30 07:44:30;;;;;;;3.30;1.70;;;;;;;31.55;29.30;100563.29;106106;1253;68108;-89
2023/05/30 07:47:19;;;;;;;3.10;1.70;;;;;;;31.51;29.87;100561.25;106238;1255;61864;-90
2023/05/30 07:50:08;;;;;;;4.50;1.40;;;;;;;31.59;28.87;100558.66;106187;1253;65378;-90
2023/05/30 07:52:57;;;;;;;5.20;1.60;;;;;;;31.73;27.63;100552.92;106181;1259;61342;-91
2023/05/30 07:55:46;;;;;;;1.60;1.20;;;;;;;31.85;28.71;100547.77;106265;1253;61516;-91
2023/05/30 07:58:35;;;;;;;4.80;1.70;;;;;;;31.84;27.15;100550.35;106160;1253;66610;-90
2023/05/30 08:01:23;;;;;;;4.90;1.70;;;;;;;31.78;26.34;100547.53;106125;1260;61369;-90
2023/05/30 08:04:12;;;;;;;3.00;1.60;;;;;;;31.67;25.29;100545.00;106161;1258;66570;-90
2023/05/30 08:07:02;;;;;;;2.90;1.50;;;;;;;31.44;24.36;100546.47;106283;1258;61313;-89
2023/05/30 08:09:51;;;;;;;2.30;1.60;;;;;;;31.29;25.77;100546.20;106139;1253;61256;-89
2023/05/30 08:12:40;;;;;;;3.00;1.40;;;;;;;31.38;24.68;100545.40;106357;1253;66902;-85
2023/05/30 08:15:29;;;;;;;2.40;1.60;;;;;;;31.38;24.34;100545.80;106130;1253;61397;-85
2023/05/30 08:18:18;;;;;;;2.90;1.40;;;;;;;31.34;23.92;100544.63;106106;1255;64795;-85
2023/05/30 08:21:07;;;;;;;9.20;2.20;;;;;;;31.36;24.65;100547.02;106164;1260;61264;-85
2023/05/30 08:23:56;;;;;;;3.30;1.60;;;;;;;31.45;23.99;100542.85;106171;1254;61332;-85
2023/05/30 08:26:48;;;;;;;6.00;1.40;;;;;;;31.62;24.83;100537.96;106014;1254;68256;-86
2023/05/30 08:29:38;;;;;;;3.10;1.60;;;;;;;31.72;23.13;100533.96;106340;1253;61324;-85
2023/05/30 08:32:27;;;;;;;2.00;1.40;;;;;;;31.61;23.78;100534.50;106164;1253;66886;-86
2023/05/30 08:35:15;;;;;;;2.00;1.40;;;;;;;31.53;22.66;100532.90;105956;1255;61318;-87
2023/05/30 08:38:04;;;;;;;4.60;1.50;;;;;;;31.45;23.99;100531.54;106166;1253;61231;-85
2023/05/30 08:40:53;;;;;;;5.30;1.20;;;;;;;31.47;24.69;100539.75;106348;1253;69307;-85
2023/05/30 08:43:42;;;;;;;3.60;1.50;;;;;;;31.57;23.80;100531.33;106316;1253;61328;-85
2023/05/30 08:46:30;;;;;;;3.00;1.60;;;;;;;31.75;22.91;100527.16;106237;1253;66561;-85
2023/05/30 08:49:22;;;;;;;2.60;1.50;;;;;;;31.89;22.91;100529.63;106145;1253;62382;-85
2023/05/30 08:52:13;;;;;;;2.00;1.50;;;;;;;31.95;23.98;100524.08;106525;1254;61332;-84
2023/05/30 08:55:14;;;;;;;2.50;1.20;;;;;;;31.98;23.24;100521.85;105984;1260;65841;-83
2023/05/30 08:58:13;;;;;;;2.70;1.70;;;;;;;31.94;22.68;100514.47;106267;1253;61234;-84
2023/05/30 09:01:02;;;;;;;2.30;1.50;;;;;;;32.02;23.72;100520.44;106226;1256;65253;-85
2023/05/30 09:03:51;;;;;;;4.70;1.10;;;;;;;32.07;24.03;100519.15;106276;1256;61259;-84
2023/05/30 09:06:40;;;;;;;3.20;1.50;;;;;;;32.09;24.11;100516.21;106161;1253;61257;-89
2023/05/30 09:09:30;;;;;;;3.70;1.60;;;;;;;32.25;24.87;100509.36;106181;1256;74698;-84
2023/05/30 09:12:18;;;;;;;2.80;1.20;;;;;;;32.35;23.97;100502.58;106103;1253;62291;-84
2023/05/30 09:15:07;;;;;;;2.60;1.70;;;;;;;32.46;23.86;100506.13;106262;1256;64864;-85
2023/05/30 09:17:56;;;;;;;3.10;1.70;;;;;;;32.47;23.32;100502.80;106325;1261;61353;-85
2023/05/30 09:20:45;;;;;;;1.80;1.30;;;;;;;32.44;23.17;100499.30;106269;1260;61222;-85
2023/05/30 09:23:36;;;;;;;2.10;1.30;;;;;;;32.45;23.15;100494.66;106250;1253;66884;-85
2023/05/30 09:26:25;;;;;;;3.90;1.60;;;;;;;32.49;22.43;100498.59;106245;1258;61151;-85
2023/05/30 09:29:14;;;;;;;3.10;1.50;;;;;;;32.49;22.84;100500.27;106400;1256;66656;-85
2023/05/30 09:32:03;;;;;;;3.00;1.40;;;;;;;32.56;23.03;100500.50;106186;1253;61216;-86
2023/05/30 09:34:56;;;;;;;3.00;1.50;;;;;;;32.66;22.69;100501.05;106168;1256;61141;-86
2023/05/30 09:37:46;;;;;;;3.30;1.70;;;;;;;32.57;22.96;100501.93;106244;1253;66456;-86
2023/05/30 09:40:40;;;;;;;4.00;1.50;;;;;;;32.56;24.36;100502.36;106148;1253;70774;-86
2023/05/30 09:43:30;;;;;;;2.10;1.30;;;;;;;32.70;23.79;100497.43;106181;1253;66184;-85
2023/05/30 09:46:23;;;;;;;4.30;1.50;;;;;;;32.78;22.96;100496.56;106218;1256;61414;-85
2023/05/30 09:49:13;;;;;;;2.20;1.60;;;;;;;32.70;22.86;100495.41;106232;1253;59565;-86
2023/05/30 09:52:02;;;;;;;4.10;1.50;;;;;;;32.66;22.50;100494.83;106211;1253;68372;-86
2023/05/30 09:54:51;;;;;;;2.50;1.50;;;;;;;32.71;22.81;100494.09;106157;1253;69732;-87
2023/05/30 09:57:45;;;;;;;3.20;1.50;;;;;;;32.80;22.43;100489.58;106216;1253;67233;-85
2023/05/30 10:00:37;;;;;;;1.80;1.30;;;;;;;32.88;22.25;100489.59;106165;1253;61144;-85
2023/05/30 10:03:43;;;;;;;2.30;1.40;;;;;;;32.93;21.41;100490.15;105995;1253;61263;-86
2023/05/30 10:06:33;;;;;;;3.30;1.40;;;;;;;32.91;21.40;100489.86;106191;1258;67401;-86
2023/05/30 10:09:27;;;;;;;3.20;1.20;;;;;;;32.80;21.46;100485.78;106370;1253;62432;-87
2023/05/30 10:12:15;;;;;;;;;;;;;;;32.74;22.28;100479.00;106338;1253;65982;-86
2023/05/30 10:15:06;;;;;;;3.20;1.40;;;;;;;32.87;22.44;100475.06;106281;1253;61329;-86
2023/05/30 10:18:06;;;;;;;4.30;1.70;;;;;;;32.94;22.37;100469.52;106390;1253;61219;-86
2023/05/30 10:20:58;;;;;;;3.20;1.70;;;;;;;33.07;22.28;100466.30;106396;1253;68191;-86
2023/05/30 10:23:50;;;;;;;1.20;1.10;;;;;;;33.16;22.43;100465.00;106189;1253;61270;-85
2023/05/30 10:26:55;;;;;;;3.50;1.60;;;;;;;33.24;21.19;100469.22;106252;1256;65893;-85
2023/05/30 11:26:58;;;;;;;2.70;1.80;;;;;;;32.46;23.47;100429.70;103869;1294;73787;-91
2023/05/30 11:29:51;;;;;;;4.70;1.50;;;;;;;32.71;23.99;100425.72;105855;1267;63382;-90
2023/05/30 11:32:39;;;;;;;5.30;2.00;;;;;;;32.87;23.81;100425.02;105779;1264;59991;-90
2023/05/30 11:35:28;;;;;;;10.10;1.90;;;;;;;32.93;23.62;100420.93;105990;1267;62794;-91
2023/05/30 11:38:21;;;;;;;3.50;1.50;;;;;;;32.85;23.92;100415.86;105686;1269;59649;-90
2023/05/30 11:41:11;;;;;;;;;;;;;;;33.00;24.24;100419.77;105732;1264;60136;-93
2023/05/30 11:43:59;;;;;;;5.10;2.00;;;;;;;33.24;23.94;100415.83;105683;1264;63203;-92
2023/05/30 11:47:04;;;;;;;4.10;1.50;;;;;;;33.28;23.93;100409.59;105755;1267;61423;-91
2023/05/30 11:49:56;;;;;;;4.80;1.60;;;;;;;33.49;22.82;100410.52;105845;1270;64618;-91
2023/05/30 11:52:48;;;;;;;4.50;1.50;;;;;;;33.58;22.55;100408.48;105435;1264;59814;-92
2023/05/30 11:55:36;;;;;;;3.30;1.60;;;;;;;33.74;23.20;100410.05;106258;1262;59710;-91
2023/05/30 11:58:24;;;;;;;3.30;1.70;;;;;;;33.80;23.18;100407.89;106226;1261;63267;-89
2023/05/30 12:01:12;;;;;;;2.60;1.60;;;;;;;33.60;23.59;100404.95;105849;1264;60003;-90
2023/05/30 12:04:00;;;;;;;6.60;1.40;;;;;;;33.28;23.37;100403.13;105923;1257;63968;-90
2023/05/30 12:06:49;;;;;;;4.90;1.70;;;;;;;32.97;23.39;100405.98;106828;1261;59659;-90
2023/05/30 12:09:38;;;;;;;1.90;1.50;;;;;;;32.84;23.11;100402.60;106202;1263;59678;-90
2023/05/30 12:12:27;;;;;;;3.00;1.60;;;;;;;32.68;23.91;100403.88;105917;1258;64427;-90
2023/05/30 12:15:17;;;;;;;4.00;1.80;;;;;;;32.66;24.70;100401.10;106403;1257;59525;-90
2023/05/30 12:18:05;;;;;;;1.90;1.30;;;;;;;32.75;25.03;100398.67;106449;1257;64881;-93
2023/05/30 12:20:53;;;;;;;2.20;2.00;;;;;;;32.75;23.29;100399.79;106647;1264;60399;-94
2023/05/30 12:23:42;;;;;;;3.40;2.00;;;;;;;32.75;23.49;100397.69;106413;1253;59743;-91
2023/05/30 12:26:32;;;;;;;3.00;1.70;;;;;;;32.87;23.85;100400.52;106743;1259;64275;-91
2023/05/30 12:29:23;;;;;;;2.10;1.50;;;;;;;33.06;23.15;100402.02;106500;1257;60019;-91
2023/05/30 12:32:11;;;;;;;3.90;2.10;;;;;;;33.33;22.56;100395.15;106511;1255;62888;-93
2023/05/30 12:34:59;;;;;;;2.60;1.60;;;;;;;33.66;23.15;100391.38;106443;1256;59758;-91
2023/05/30 12:37:47;;;;;;;6.20;1.90;;;;;;;33.96;22.66;100393.84;106370;1260;59205;-91
2023/05/30 12:40:35;;;;;;;3.90;1.80;;;;;;;34.29;22.67;100393.47;106186;1257;74888;-94
2023/05/30 12:43:29;;;;;;;4.00;1.90;;;;;;;34.56;22.49;100390.09;106640;1253;59752;-91
2023/05/30 12:46:18;;;;;;;2.60;1.70;;;;;;;34.82;22.45;100389.47;107278;1248;62800;-90
2023/05/30 12:49:07;;;;;;;3.70;1.60;;;;;;;35.00;22.55;100388.36;106352;1254;59667;-90
2023/05/30 12:51:56;;;;;;;5.50;1.60;;;;;;;35.19;22.06;100385.09;106325;1254;60303;-90
2023/05/30 12:54:47;;;;;;;2.60;1.50;;;;;;;35.39;22.05;100382.14;106244;1254;64328;-89
2023/05/30 12:57:35;;;;;;;2.80;1.80;;;;;;;35.63;22.17;100381.68;106244;1254;60290;-90
2023/05/30 13:00:23;;;;;;;2.00;1.60;;;;;;;35.92;21.74;100380.27;106664;1253;62564;-93
2023/05/30 13:07:31;;;;;;;3.30;1.40;;;;;;;36.30;22.09;100380.80;106419;1258;59561;-94
2023/05/30 13:10:20;;;;;;;4.40;2.00;;;;;;;36.49;21.80;100382.11;106342;1259;64267;-93
2023/05/30 13:13:08;;;;;;;2.60;1.60;;;;;;;36.60;21.04;100377.67;106429;1254;59571;-93
2023/05/30 13:15:57;;;;;;;2.20;1.50;;;;;;;36.69;20.87;100380.60;106267;1254;63985;-93
2023/05/30 13:18:45;;;;;;;3.60;1.70;;;;;;;36.88;20.99;100377.23;106380;1254;59805;-93
2023/05/30 13:21:35;;;;;;;2.10;1.60;;;;;;;37.05;20.89;100375.21;106292;1259;59746;-92
2023/05/30 13:24:23;;;;;;;4.70;1.60;;;;;;;37.09;20.04;100376.45;106677;1260;65915;-91
2023/05/30 13:27:11;;;;;;;1.90;1.50;;;;;;;36.91;20.31;100372.23;106375;1260;60254;-93
2023/05/30 13:29:59;;;;;;;2.50;1.70;;;;;;;36.91;20.29;100372.66;106653;1254;62854;-91
2023/05/30 13:32:47;;;;;;;3.30;2.00;;;;;;;36.83;19.57;100372.92;106506;1254;59655;-93
2023/05/30 13:35:35;;;;;;;3.20;1.80;;;;;;;36.70;19.97;100376.73;107335;1254;59593;-92
2023/05/30 13:38:27;;;;;;;2.50;1.60;;;;;;;36.74;19.53;100378.09;106216;1256;64046;-92
2023/05/30 13:41:16;;;;;;;3.30;1.40;;;;;;;36.76;19.92;100378.98;106651;1254;60028;-91
2023/05/30 13:44:04;;;;;;;3.40;1.60;;;;;;;36.85;20.06;100380.60;106482;1257;62612;-93
2023/05/30 13:46:53;;;;;;;2.30;1.60;;;;;;;37.02;19.83;100381.78;106139;1254;59785;-91
2023/05/30 13:49:40;;;;;;;3.50;1.70;;;;;;;37.10;20.03;100382.64;106409;1254;59706;-90
2023/05/30 13:52:38;;;;;;;3.40;2.00;;;;;;;37.18;20.00;100379.11;107187;1257;64410;-91
2023/05/30 13:55:29;;;;;;;3.20;1.80;;;;;;;37.21;19.89;100377.23;106333;1254;60614;-90
2023/05/30 13:58:35;;;;;;;4.30;2.00;;;;;;;37.25;20.26;100377.02;106281;1254;62968;-91
2023/05/30 14:01:35;;;;;;;5.60;1.80;;;;;;;37.24;20.36;100375.67;106365;1253;59659;-90
2023/05/30 14:04:29;;;;;;;2.30;1.60;;;;;;;37.17;20.03;100375.50;106492;1254;59560;-91
2023/05/30 14:07:18;;;;;;;3.20;2.00;;;;;;;37.10;20.36;100377.92;106904;1254;63706;-92
2023/05/30 14:10:12;;;;;;;2.80;1.70;;;;;;;37.09;20.45;100376.09;106459;1258;60080;-90
2023/05/30 14:13:00;;;;;;;4.90;1.80;;;;;;;36.88;20.33;100377.41;106336;1254;63105;-92
2023/05/30 14:15:48;;;;;;;2.70;1.60;;;;;;;36.57;20.03;100376.22;106491;1257;59640;-91
2023/05/30 14:18:36;;;;;;;4.10;1.90;;;;;;;36.37;20.26;100373.98;106466;1255;59841;-92
2023/05/30 14:21:25;;;;;;;3.10;1.70;;;;;;;36.24;20.22;100370.46;106186;1255;62953;-90
2023/05/30 14:24:13;;;;;;;2.50;2.10;;;;;;;36.14;20.57;100366.00;107007;1254;59647;-92
2023/05/30 14:27:01;;;;;;;3.40;2.00;;;;;;;36.06;20.66;100362.51;106512;1255;71666;-92
2023/05/30 14:29:50;;;;;;;2.60;2.00;;;;;;;36.05;21.17;100364.56;106379;1254;59733;-93
2023/05/30 14:32:39;;;;;;;6.10;2.70;;;;;;;36.08;21.00;100363.59;106444;1254;59342;-92
2023/05/30 14:35:29;;;;;;;4.40;2.00;;;;;;;36.07;20.73;100364.90;106491;1254;62923;-91
2023/05/30 14:38:19;;;;;;;4.30;2.00;;;;;;;35.88;20.59;100369.91;106429;1254;59819;-93
2023/05/30 14:41:07;;;;;;;2.60;1.60;;;;;;;35.49;21.24;100368.85;106476;1259;63811;-94
2023/05/30 14:43:56;;;;;;;4.60;1.90;;;;;;;35.13;21.93;100372.38;106255;1254;59736;-90
2023/05/30 14:46:45;;;;;;;3.70;1.90;;;;;;;34.68;22.34;100369.98;106412;1254;59832;-93
2023/05/30 14:49:34;;;;;;;2.70;2.10;;;;;;;34.27;22.83;100374.05;106407;1254;64421;-90
2023/05/30 14:52:22;;;;;;;3.90;1.90;;;;;;;34.00;22.68;100373.84;106535;1254;59883;-92
2023/05/30 14:55:10;;;;;;;3.90;2.30;;;;;;;33.84;23.12;100371.30;106460;1257;63752;-92
2023/05/30 14:57:58;;;;;;;4.80;1.80;;;;;;;33.73;22.95;100369.29;106387;1254;59920;-91
2023/05/30 15:00:50;;;;;;;3.10;1.70;;;;;;;33.58;23.14;100369.79;106490;1259;59634;-91
2023/05/30 15:03:38;;;;;;;3.10;1.80;;;;;;;33.37;23.92;100368.77;106449;1254;63210;-91
2023/05/30 15:06:26;;;;;;;2.30;1.90;;;;;;;33.16;23.71;100366.48;106433;1258;59834;-92
2023/05/30 15:09:15;;;;;;;3.70;2.10;;;;;;;32.89;24.35;100363.95;106405;1259;64278;-92
2023/05/30 15:12:07;;;;;;;3.00;1.80;;;;;;;32.65;24.93;100364.98;106515;1254;59681;-91
2023/05/30 15:14:54;;;;;;;4.70;1.80;;;;;;;32.48;25.38;100363.66;106758;1257;59570;-92
2023/05/30 15:17:43;;;;;;;10.20;2.50;;;;;;;32.36;25.78;100366.70;106579;1259;64523;-90
2023/05/30 15:20:31;;;;;;;5.30;1.90;;;;;;;32.27;25.78;100369.69;106596;1258;59763;-92